createdAt,value
2019-02-25T00:01:34.283Z,14.35
2019-02-25T00:03:54.572Z,14.23
2019-02-25T00:06:15.830Z,13.83
2019-02-25T00:08:36.154Z,14.47
2019-02-25T00:10:57.383Z,15.05
2019-02-25T00:13:17.736Z,15.72
2019-02-25T00:15:37.982Z,14.25
2019-02-25T00:17:58.435Z,15.20
2019-02-25T00:20:18.719Z,16.07
2019-02-25T00:22:39.001Z,14.38
2019-02-25T00:24:59.346Z,14.50
2019-02-25T00:27:19.602Z,14.07
2019-02-25T00:29:39.873Z,14.58
2019-02-25T00:32:00.118Z,14.78
2019-02-25T00:34:20.410Z,14.80
2019-02-25T00:36:40.672Z,16.25
2019-02-25T00:39:00.957Z,16.27
2019-02-25T00:41:22.918Z,16.75
2019-02-25T00:43:43.190Z,17.05
2019-02-25T00:46:03.493Z,16.57
2019-02-25T00:48:23.764Z,17.45
2019-02-25T00:50:44.099Z,15.78
2019-02-25T00:53:04.401Z,16.32
2019-02-25T00:55:24.786Z,17.00
2019-02-25T00:57:45.043Z,16.05
2019-02-25T01:00:08.561Z,17.25
2019-02-25T01:02:28.844Z,16.27
2019-02-25T01:04:49.111Z,16.85
2019-02-25T01:07:09.426Z,15.38
2019-02-25T01:09:29.731Z,16.25
2019-02-25T01:11:49.978Z,16.27
2019-02-25T01:14:10.254Z,15.10
2019-02-25T01:16:30.524Z,15.35
2019-02-25T01:18:50.783Z,15.75
2019-02-25T01:21:11.106Z,15.25
2019-02-25T01:23:31.435Z,15.75
2019-02-25T01:25:51.698Z,15.60
2019-02-25T01:28:12.134Z,15.93
2019-02-25T01:30:32.532Z,15.93
2019-02-25T01:32:52.823Z,16.05
2019-02-25T01:35:13.536Z,15.08
2019-02-25T01:37:34.906Z,15.68
2019-02-25T01:39:55.292Z,15.10
2019-02-25T01:42:15.614Z,15.95
2019-02-25T01:44:35.902Z,17.10
2019-02-25T01:46:56.170Z,16.17
2019-02-25T01:49:16.486Z,17.10
2019-02-25T01:51:36.778Z,15.90
2019-02-25T01:53:57.117Z,16.60
2019-02-25T01:56:17.475Z,16.20
2019-02-25T01:58:37.767Z,15.70
2019-02-25T02:00:58.115Z,15.70
2019-02-25T02:03:18.442Z,15.60
2019-02-25T02:05:38.727Z,16.60
2019-02-25T02:07:59.024Z,15.68
2019-02-25T02:10:19.308Z,16.50
2019-02-25T02:12:39.721Z,16.05
2019-02-25T02:15:00.017Z,16.52
2019-02-25T02:17:20.273Z,16.73
2019-02-25T02:19:40.535Z,17.07
2019-02-25T02:22:00.820Z,15.63
2019-02-25T02:24:21.153Z,15.15
2019-02-25T02:26:41.423Z,15.88
2019-02-25T02:29:02.645Z,14.63
2019-02-25T02:31:22.902Z,15.55
2019-02-25T02:33:43.190Z,15.85
2019-02-25T02:36:03.480Z,15.68
2019-02-25T02:38:23.735Z,16.10
2019-02-25T02:40:44.048Z,16.60
2019-02-25T02:43:04.310Z,15.00
2019-02-25T02:45:46.261Z,15.40
2019-02-25T02:48:12.759Z,15.20
2019-02-25T02:50:33.033Z,15.38
2019-02-25T02:52:53.319Z,15.80
2019-02-25T02:55:13.648Z,15.38
2019-02-25T02:57:33.936Z,16.23
2019-02-25T02:59:54.218Z,15.48
2019-02-25T03:02:14.482Z,15.48
2019-02-25T03:04:34.761Z,14.85
2019-02-25T03:06:55.036Z,16.27
2019-02-25T03:09:15.365Z,15.53
2019-02-25T03:11:35.639Z,15.25
2019-02-25T03:13:55.938Z,15.72
2019-02-25T03:16:16.188Z,14.38
2019-02-25T03:18:36.506Z,14.78
2019-02-25T03:20:57.113Z,14.43
2019-02-25T03:23:17.381Z,14.28
2019-02-25T03:25:37.641Z,13.93
2019-02-25T03:27:57.917Z,13.95
2019-02-25T03:30:21.671Z,14.58
2019-02-25T03:32:41.999Z,14.53
2019-02-25T03:35:02.311Z,12.88
2019-02-25T03:37:22.588Z,12.73
2019-02-25T03:39:43.039Z,13.53
2019-02-25T03:42:03.408Z,13.28
2019-02-25T03:44:23.739Z,13.10
2019-02-25T03:46:44.091Z,13.43
2019-02-25T03:49:04.409Z,13.65
2019-02-25T03:51:24.667Z,13.30
2019-02-25T03:53:45.018Z,13.22
2019-02-25T03:56:05.359Z,13.85
2019-02-25T03:58:25.705Z,12.98
2019-02-25T04:00:45.953Z,12.73
2019-02-25T04:03:06.219Z,13.35
2019-02-25T04:05:26.932Z,13.18
2019-02-25T04:07:47.250Z,13.75
2019-02-25T04:10:09.806Z,12.13
2019-02-25T04:12:29.805Z,9.95
2019-02-25T04:14:50.154Z,12.40
2019-02-25T04:17:10.406Z,13.05
2019-02-25T04:19:30.695Z,11.43
2019-02-25T04:21:51.004Z,11.90
2019-02-25T04:24:11.352Z,12.30
2019-02-25T04:26:31.621Z,12.73
2019-02-25T04:28:51.878Z,12.05
2019-02-25T04:31:12.186Z,13.68
2019-02-25T04:33:32.494Z,12.93
2019-02-25T04:35:53.579Z,13.30
2019-02-25T04:38:14.125Z,13.35
2019-02-25T04:40:34.838Z,14.33
2019-02-25T04:42:55.163Z,13.53
2019-02-25T04:45:17.503Z,15.13
2019-02-25T04:47:37.553Z,12.00
2019-02-25T04:49:58.811Z,14.40
2019-02-25T04:52:19.210Z,14.50
2019-02-25T04:54:39.545Z,14.20
2019-02-25T04:56:59.915Z,14.87
2019-02-25T04:59:20.289Z,13.75
2019-02-25T05:01:40.558Z,14.50
2019-02-25T05:04:00.842Z,14.98
2019-02-25T05:06:21.170Z,13.35
2019-02-25T05:08:41.772Z,13.98
2019-02-25T05:11:02.076Z,14.58
2019-02-25T05:13:22.423Z,14.28
2019-02-25T05:15:42.778Z,14.20
2019-02-25T05:18:03.028Z,13.95
2019-02-25T05:20:24.298Z,13.50
2019-02-25T05:22:44.554Z,11.55
2019-02-25T05:25:07.537Z,11.43
2019-02-25T05:27:27.520Z,11.68
2019-02-25T05:29:48.112Z,11.80
2019-02-25T05:32:08.476Z,11.80
2019-02-25T05:34:28.734Z,11.90
2019-02-25T05:36:48.984Z,12.25
2019-02-25T05:39:09.252Z,11.53
2019-02-25T05:41:29.718Z,12.73
2019-02-25T05:43:49.966Z,12.28
2019-02-25T05:46:10.242Z,12.88
2019-02-25T05:48:30.580Z,13.98
2019-02-25T05:50:50.909Z,12.15
2019-02-25T05:53:11.192Z,13.00
2019-02-25T05:55:31.511Z,12.93
2019-02-25T05:57:51.770Z,13.85
2019-02-25T06:00:16.820Z,13.72
2019-02-25T06:02:37.113Z,13.80
2019-02-25T06:04:57.425Z,14.18
2019-02-25T06:07:17.682Z,14.33
2019-02-25T06:09:38.083Z,14.83
2019-02-25T06:11:58.392Z,14.00
2019-02-25T06:14:18.770Z,13.00
2019-02-25T06:16:39.030Z,12.90
2019-02-25T06:18:59.382Z,12.33
2019-02-25T06:21:19.661Z,12.80
2019-02-25T06:23:40.963Z,11.83
2019-02-25T06:26:01.375Z,11.68
2019-02-25T06:28:21.685Z,13.10
2019-02-25T06:30:42.006Z,12.68
2019-02-25T06:33:02.379Z,12.05
2019-02-25T06:35:22.741Z,11.95
2019-02-25T06:37:43.130Z,11.65
2019-02-25T06:40:03.524Z,13.75
2019-02-25T06:42:23.785Z,13.15
2019-02-25T06:44:44.244Z,13.62
2019-02-25T06:47:04.528Z,13.93
2019-02-25T06:49:24.894Z,14.18
2019-02-25T06:51:45.242Z,14.45
2019-02-25T06:54:05.588Z,13.53
2019-02-25T06:56:25.877Z,12.98
2019-02-25T06:58:46.144Z,12.30
2019-02-25T07:01:06.417Z,13.28
2019-02-25T07:03:26.994Z,12.07
2019-02-25T07:05:51.786Z,13.32
2019-02-25T07:08:13.709Z,12.95
2019-02-25T07:10:41.568Z,13.50
2019-02-25T07:13:06.272Z,13.60
2019-02-25T07:15:28.296Z,14.38
2019-02-25T07:17:50.301Z,12.55
2019-02-25T07:20:12.253Z,13.25
2019-02-25T07:22:36.971Z,13.22
2019-02-25T07:24:59.002Z,13.05
2019-02-25T07:27:21.599Z,13.65
2019-02-25T07:29:59.542Z,13.45
2019-02-25T07:32:24.406Z,14.13
2019-02-25T07:34:46.328Z,13.22
2019-02-25T07:37:14.258Z,13.60
2019-02-25T07:39:52.263Z,13.00
2019-02-25T07:42:17.193Z,13.05
2019-02-25T07:44:48.522Z,13.18
2019-02-25T07:47:10.495Z,12.50
2019-02-25T07:49:47.506Z,13.22
2019-02-25T07:52:21.661Z,13.05
2019-02-25T07:54:58.530Z,13.48
2019-02-25T07:57:38.939Z,14.43
2019-02-25T08:00:03.659Z,12.65
2019-02-25T08:02:27.095Z,12.60
2019-02-25T08:04:49.058Z,11.95
2019-02-25T08:07:28.905Z,12.53
2019-02-25T08:09:53.774Z,12.03
2019-02-25T08:12:32.122Z,12.90
2019-02-25T08:15:00.048Z,13.25
2019-02-25T08:17:37.010Z,13.48
2019-02-25T08:20:08.010Z,12.43
2019-02-25T08:22:41.620Z,13.15
2019-02-25T08:27:32.289Z,12.37
2019-02-25T08:29:57.262Z,13.93
2019-02-25T08:32:26.400Z,12.55
2019-02-25T08:35:05.587Z,12.88
2019-02-25T08:37:33.334Z,13.68
2019-02-25T08:40:38.932Z,13.45
2019-02-25T08:43:06.253Z,13.85
2019-02-25T08:45:37.240Z,13.93
2019-02-25T08:47:59.136Z,13.72
2019-02-25T08:50:19.473Z,13.85
2019-02-25T08:52:39.762Z,14.45
2019-02-25T08:55:00.321Z,14.55
2019-02-25T08:57:20.822Z,11.95
2019-02-25T08:59:41.527Z,12.58
2019-02-25T09:02:02.020Z,11.78
2019-02-25T09:04:22.555Z,10.95
2019-02-25T09:06:42.841Z,12.40
2019-02-25T09:09:04.083Z,13.40
2019-02-25T09:11:25.553Z,13.15
2019-02-25T09:13:45.940Z,11.18
2019-02-25T09:16:06.272Z,12.10
2019-02-25T09:18:26.534Z,10.10
2019-02-25T09:20:47.891Z,11.50
2019-02-25T09:23:08.262Z,11.25
2019-02-25T09:25:28.575Z,11.30
2019-02-25T09:27:48.962Z,10.68
2019-02-25T09:30:12.391Z,11.43
2019-02-25T09:32:34.055Z,11.70
2019-02-25T09:34:54.313Z,10.82
2019-02-25T09:37:14.577Z,9.25
2019-02-25T09:39:35.019Z,9.88
2019-02-25T09:41:56.587Z,10.38
2019-02-25T09:44:16.866Z,9.35
2019-02-25T09:46:37.217Z,9.03
2019-02-25T09:48:57.633Z,10.50
2019-02-25T09:51:17.960Z,9.10
2019-02-25T09:53:38.336Z,9.05
2019-02-25T09:55:58.753Z,10.35
2019-02-25T09:58:19.040Z,10.60
2019-02-25T10:00:39.349Z,10.23
2019-02-25T10:02:59.685Z,9.73
2019-02-25T10:05:20.045Z,9.00
2019-02-25T10:07:41.490Z,8.93
2019-02-25T10:10:01.810Z,8.40
2019-02-25T10:12:22.166Z,9.70
2019-02-25T10:14:42.550Z,8.15
2019-02-25T10:17:02.914Z,7.70
2019-02-25T10:19:23.182Z,8.33
2019-02-25T10:21:43.483Z,8.98
2019-02-25T10:24:03.918Z,9.28
2019-02-25T10:26:24.201Z,8.80
2019-02-25T10:28:44.011Z,8.23
2019-02-25T10:31:03.754Z,8.20
2019-02-25T10:33:24.093Z,7.97
2019-02-25T10:35:44.403Z,9.28
2019-02-25T10:38:06.576Z,10.10
2019-02-25T10:40:27.567Z,8.75
2019-02-25T10:42:47.965Z,10.03
2019-02-25T10:45:13.053Z,11.12
2019-02-25T10:47:32.443Z,11.28
2019-02-25T10:49:52.148Z,10.38
2019-02-25T10:52:13.351Z,10.98
2019-02-25T10:54:34.037Z,9.93
2019-02-25T10:56:55.855Z,10.08
2019-02-25T10:59:16.257Z,9.40
2019-02-25T11:01:37.531Z,10.30
2019-02-25T11:03:58.076Z,10.43
2019-02-25T11:06:18.436Z,10.10
2019-02-25T11:08:41.488Z,9.73
2019-02-25T11:11:07.044Z,9.88
2019-02-25T11:13:27.628Z,11.18
2019-02-25T11:15:49.379Z,10.23
2019-02-25T11:18:10.736Z,10.18
2019-02-25T11:20:31.844Z,9.98
2019-02-25T11:22:54.889Z,10.15
2019-02-25T11:25:15.669Z,9.43
2019-02-25T11:27:37.722Z,9.93
2019-02-25T11:29:59.713Z,9.00
2019-02-25T11:32:25.821Z,9.23
2019-02-25T11:34:46.312Z,8.00
2019-02-25T11:37:06.584Z,7.55
2019-02-25T11:39:27.575Z,6.60
2019-02-25T11:41:48.867Z,8.00
2019-02-25T11:44:09.255Z,8.00
2019-02-25T11:46:29.651Z,8.08
2019-02-25T11:48:50.032Z,7.80
2019-02-25T11:51:09.829Z,7.40
2019-02-25T11:53:29.552Z,7.00
2019-02-25T11:55:49.962Z,6.90
2019-02-25T11:58:09.663Z,7.08
2019-02-25T12:00:29.975Z,6.40
2019-02-25T12:02:50.068Z,6.70
2019-02-25T12:05:10.775Z,7.60
2019-02-25T12:07:30.861Z,7.27
2019-02-25T12:09:50.967Z,6.80
2019-02-25T12:12:11.034Z,6.93
2019-02-25T12:14:32.187Z,6.60
2019-02-25T12:16:52.278Z,6.97
2019-02-25T12:19:17.959Z,7.40
2019-02-25T12:21:34.177Z,7.43
2019-02-25T12:23:54.295Z,7.77
2019-02-25T12:26:14.366Z,7.67
2019-02-25T12:28:34.461Z,7.83
2019-02-25T12:30:54.660Z,7.77
2019-02-25T12:33:14.730Z,7.27
2019-02-25T12:35:34.832Z,7.10
2019-02-25T12:37:54.956Z,7.33
2019-02-25T12:40:18.337Z,7.43
2019-02-25T12:42:38.329Z,7.53
2019-02-25T12:44:58.758Z,7.83
2019-02-25T12:47:18.867Z,8.27
2019-02-25T12:49:38.962Z,8.73
2019-02-25T12:52:02.915Z,7.85
2019-02-25T12:54:22.737Z,7.83
2019-02-25T12:56:42.880Z,8.13
2019-02-25T12:59:05.090Z,8.00
2019-02-25T13:01:24.574Z,8.03
2019-02-25T13:03:44.612Z,7.67
2019-02-25T13:06:04.701Z,8.37
2019-02-25T13:08:24.778Z,7.67
2019-02-25T13:10:44.975Z,7.77
2019-02-25T13:13:05.078Z,7.77
2019-02-25T13:15:25.158Z,7.70
2019-02-25T13:17:45.238Z,8.93
2019-02-25T13:20:08.496Z,7.03
2019-02-25T13:22:28.545Z,7.77
2019-02-25T13:24:48.618Z,7.83
2019-02-25T13:27:11.059Z,7.73
2019-02-25T13:29:31.858Z,7.57
2019-02-25T13:31:52.424Z,6.97
2019-02-25T13:34:12.941Z,7.70
2019-02-25T13:36:33.406Z,6.80
2019-02-25T13:38:53.461Z,7.00
2019-02-25T13:41:13.645Z,7.13
2019-02-25T13:43:34.177Z,6.30
2019-02-25T13:45:54.669Z,6.87
2019-02-25T13:48:15.016Z,6.83
2019-02-25T13:50:35.322Z,6.70
2019-02-25T13:52:55.599Z,6.93
2019-02-25T13:55:20.663Z,6.00
2019-02-25T13:57:41.270Z,6.13
2019-02-25T14:00:01.698Z,6.37
2019-02-25T14:02:22.028Z,6.47
2019-02-25T14:04:42.495Z,7.20
2019-02-25T14:07:02.842Z,6.87
2019-02-25T14:09:23.153Z,6.03
2019-02-25T14:11:44.435Z,6.77
2019-02-25T14:14:05.508Z,7.00
2019-02-25T14:16:26.640Z,5.60
2019-02-25T14:18:46.889Z,7.23
2019-02-25T14:21:07.396Z,6.53
2019-02-25T14:23:27.791Z,6.40
2019-02-25T14:25:48.858Z,6.33
2019-02-25T14:28:09.229Z,6.60
2019-02-25T14:30:32.690Z,7.23
2019-02-25T14:32:53.421Z,6.87
2019-02-25T14:35:13.907Z,6.78
2019-02-25T14:37:34.364Z,6.08
2019-02-25T14:39:56.321Z,6.90
2019-02-25T14:42:18.893Z,6.80
2019-02-25T14:44:41.276Z,7.47
2019-02-25T14:47:02.954Z,6.97
2019-02-25T14:49:23.044Z,6.30
2019-02-25T14:51:43.313Z,6.47
2019-02-25T14:54:03.670Z,6.60
2019-02-25T14:56:24.291Z,6.93
2019-02-25T14:58:45.601Z,6.97
2019-02-25T15:01:06.931Z,6.70
2019-02-25T15:03:28.747Z,6.50
2019-02-25T15:05:50.228Z,6.90
2019-02-25T15:08:11.801Z,6.60
2019-02-25T15:10:33.953Z,6.80
2019-02-25T15:12:58.533Z,6.40
2019-02-25T15:15:18.573Z,6.30
2019-02-25T15:17:38.871Z,6.17
2019-02-25T15:19:59.487Z,7.75
2019-02-25T15:22:19.552Z,8.10
2019-02-25T15:24:44.136Z,8.35
2019-02-25T15:27:04.375Z,7.97
2019-02-25T15:29:24.080Z,9.28
2019-02-25T15:31:46.304Z,8.33
2019-02-25T15:34:06.950Z,8.03
2019-02-25T15:36:29.071Z,6.30
2019-02-25T15:38:50.014Z,7.17
2019-02-25T15:41:11.271Z,7.17
2019-02-25T15:43:31.994Z,7.25
2019-02-25T15:45:52.722Z,7.55
2019-02-25T15:48:15.731Z,6.92
2019-02-25T15:50:36.104Z,7.40
2019-02-25T15:53:00.768Z,6.90
2019-02-25T15:55:21.166Z,7.00
2019-02-25T15:57:42.532Z,7.17
2019-02-25T16:00:03.524Z,7.45
2019-02-25T16:02:24.166Z,7.95
2019-02-25T16:04:44.893Z,7.67
2019-02-25T16:07:10.432Z,7.72
2019-02-25T16:09:31.572Z,6.87
2019-02-25T16:11:53.429Z,6.55
2019-02-25T16:14:14.049Z,7.55
2019-02-25T16:16:34.695Z,7.08
2019-02-25T16:18:55.404Z,7.22
2019-02-25T16:21:16.125Z,7.22
2019-02-25T16:23:40.591Z,7.40
2019-02-25T16:26:01.532Z,5.40
2019-02-25T16:28:22.074Z,8.00
2019-02-25T16:30:44.437Z,7.75
2019-02-25T16:33:07.274Z,7.70
2019-02-25T16:35:27.215Z,8.10
2019-02-25T16:37:50.855Z,8.18
2019-02-25T16:40:19.437Z,8.05
2019-02-25T16:42:41.399Z,7.37
2019-02-25T16:45:06.993Z,8.65
2019-02-25T16:47:32.866Z,7.83
2019-02-25T16:49:50.352Z,5.80
2019-02-25T16:52:11.660Z,6.85
2019-02-25T16:54:32.239Z,7.70
2019-02-25T16:56:55.831Z,7.35
2019-02-25T16:59:18.495Z,8.15
2019-02-25T17:01:39.751Z,7.75
2019-02-25T17:04:00.886Z,7.65
2019-02-25T17:06:21.685Z,8.38
2019-02-25T17:08:42.285Z,7.80
2019-02-25T17:11:02.857Z,7.08
2019-02-25T17:13:23.409Z,8.60
2019-02-25T17:15:46.232Z,8.10
2019-02-25T17:18:06.723Z,8.35
2019-02-25T17:20:28.162Z,8.00
2019-02-25T17:22:49.931Z,6.25
2019-02-25T17:25:12.478Z,9.18
2019-02-25T17:27:32.817Z,10.40
2019-02-25T17:29:55.402Z,9.95
2019-02-25T17:32:16.767Z,8.88
2019-02-25T17:34:40.006Z,6.90
2019-02-25T17:37:01.565Z,9.93
2019-02-25T17:39:22.356Z,9.73
2019-02-25T17:41:44.447Z,8.88
2019-02-25T17:44:05.662Z,9.05
2019-02-25T17:46:28.770Z,9.23
2019-02-25T17:48:49.388Z,10.50
2019-02-25T17:51:10.120Z,10.50
2019-02-25T17:53:32.841Z,10.53
2019-02-25T17:55:53.816Z,8.53
2019-02-25T17:58:16.950Z,13.10
2019-02-25T18:00:42.563Z,13.25
2019-02-25T18:03:03.714Z,15.48
2019-02-25T18:05:24.492Z,16.80
2019-02-25T18:07:46.523Z,16.95
2019-02-25T18:10:10.720Z,16.37
2019-02-25T18:12:31.817Z,16.42
2019-02-25T18:14:54.772Z,16.85
2019-02-25T18:17:19.239Z,16.12
2019-02-25T18:19:41.730Z,15.30
2019-02-25T18:22:02.615Z,15.05
2019-02-25T18:24:26.766Z,16.20
2019-02-25T18:26:46.941Z,15.87
2019-02-25T18:29:09.303Z,17.33
2019-02-25T18:31:30.589Z,13.60
2019-02-25T18:33:52.936Z,17.17
2019-02-25T18:36:13.733Z,19.70
2019-02-25T18:38:34.380Z,18.12
2019-02-25T18:40:55.308Z,18.17
2019-02-25T18:43:16.006Z,17.65
2019-02-25T18:45:38.474Z,16.15
2019-02-25T18:47:58.513Z,11.50
2019-02-25T18:50:21.795Z,14.35
2019-02-25T18:52:44.751Z,14.38
2019-02-25T18:55:08.832Z,12.87
2019-02-25T18:57:29.584Z,16.52
2019-02-25T18:59:50.387Z,17.15
2019-02-25T19:02:12.820Z,16.37
2019-02-25T19:04:34.534Z,17.37
2019-02-25T19:06:54.624Z,11.23
2019-02-25T19:09:18.243Z,16.80
2019-02-25T19:11:40.445Z,13.50
2019-02-25T19:14:03.665Z,14.28
2019-02-25T19:16:24.676Z,16.17
2019-02-25T19:18:46.822Z,15.15
2019-02-25T19:21:09.227Z,14.63
2019-02-25T19:23:32.781Z,14.60
2019-02-25T19:25:52.136Z,13.78
2019-02-25T19:28:18.638Z,13.88
2019-02-25T19:30:37.180Z,13.70
2019-02-25T19:32:57.870Z,13.22
2019-02-25T19:35:18.854Z,12.68
2019-02-25T19:37:40.623Z,12.47
2019-02-25T19:40:05.311Z,15.23
2019-02-25T19:42:25.187Z,11.78
2019-02-25T19:44:46.328Z,10.72
2019-02-25T19:47:07.919Z,14.90
2019-02-25T19:49:28.540Z,15.50
2019-02-25T19:51:50.719Z,14.47
2019-02-25T19:54:13.435Z,12.28
2019-02-25T19:56:33.572Z,12.03
2019-02-25T19:58:54.450Z,15.83
2019-02-25T20:01:15.901Z,15.17
2019-02-25T20:03:37.575Z,14.07
2019-02-25T20:05:58.453Z,11.20
2019-02-25T20:08:19.086Z,14.55
2019-02-25T20:10:39.690Z,13.48
2019-02-25T20:13:00.352Z,13.98
2019-02-25T20:15:25.063Z,14.65
2019-02-25T20:17:48.843Z,15.10
2019-02-25T20:20:12.866Z,14.00
2019-02-25T20:22:36.635Z,14.70
2019-02-25T20:24:57.805Z,12.77
2019-02-25T20:27:18.489Z,14.83
2019-02-25T20:29:40.004Z,14.15
2019-02-25T20:32:01.310Z,15.03
2019-02-25T20:34:25.903Z,14.50
2019-02-25T20:36:48.326Z,15.80
2019-02-25T20:39:11.568Z,14.77
2019-02-25T20:41:32.168Z,14.40
2019-02-25T20:43:55.962Z,13.95
2019-02-25T20:46:14.548Z,14.00
2019-02-25T20:48:35.182Z,15.28
2019-02-25T20:50:55.757Z,15.80
2019-02-25T20:53:19.273Z,15.80
2019-02-25T20:57:58.743Z,14.85
2019-02-25T21:00:24.387Z,13.65
2019-02-25T21:02:45.097Z,12.95
2019-02-25T21:05:09.742Z,12.45
2019-02-25T21:07:31.743Z,12.55
2019-02-25T21:09:51.736Z,9.03
2019-02-25T21:12:13.187Z,12.18
2019-02-25T21:14:35.651Z,9.23
2019-02-25T21:19:19.679Z,10.85
2019-02-25T21:21:39.574Z,13.28
2019-02-25T21:24:01.918Z,12.82
2019-02-25T21:26:27.382Z,10.32
2019-02-25T21:28:46.462Z,13.58
2019-02-25T21:31:10.979Z,12.55
2019-02-25T21:33:30.353Z,12.82
2019-02-25T21:35:50.989Z,12.73
2019-02-25T21:38:12.683Z,12.37
2019-02-25T21:40:33.240Z,11.22
2019-02-25T21:42:56.676Z,10.38
2019-02-25T21:45:20.022Z,12.07
2019-02-25T21:47:39.608Z,9.30
2019-02-25T21:50:01.279Z,11.75
2019-02-25T21:52:23.771Z,11.48
2019-02-25T21:54:45.024Z,11.85
2019-02-25T21:57:09.758Z,11.97
2019-02-25T21:59:32.375Z,11.43
2019-02-25T22:01:55.231Z,12.00
2019-02-25T22:04:15.526Z,8.70
2019-02-25T22:06:36.919Z,11.40
2019-02-25T22:08:58.644Z,10.60
2019-02-25T22:11:22.170Z,11.28
2019-02-25T22:13:42.299Z,11.18
2019-02-25T22:16:03.557Z,10.13
2019-02-25T22:18:26.146Z,13.05
2019-02-25T22:23:09.017Z,10.40
2019-02-25T22:25:29.606Z,10.63
2019-02-25T22:27:50.387Z,9.65
2019-02-25T22:30:15.943Z,9.93
2019-02-25T22:32:38.222Z,9.45
2019-02-25T22:35:00.553Z,8.58
2019-02-25T22:37:22.735Z,9.05
2019-02-25T22:39:46.605Z,8.70
2019-02-25T22:42:09.617Z,9.25
2019-02-25T22:44:31.771Z,9.55
2019-02-25T22:46:52.328Z,9.95
2019-02-25T22:49:12.894Z,9.85
2019-02-25T22:51:35.813Z,7.28
2019-02-25T22:53:56.862Z,7.00
2019-02-25T22:56:18.398Z,9.68
2019-02-25T22:58:40.798Z,5.97
2019-02-25T23:01:04.689Z,9.55
2019-02-25T23:03:27.668Z,8.98
2019-02-25T23:05:50.338Z,9.30
2019-02-25T23:08:13.118Z,7.30
2019-02-25T23:10:33.518Z,8.93
2019-02-25T23:12:54.141Z,8.45
2019-02-25T23:15:15.024Z,9.18
2019-02-25T23:17:37.503Z,9.18
2019-02-25T23:19:59.973Z,7.10
2019-02-25T23:22:19.695Z,6.73
2019-02-25T23:24:43.404Z,8.85
2019-02-25T23:27:02.416Z,7.90
2019-02-25T23:29:27.850Z,8.63
2019-02-25T23:31:46.458Z,6.80
2019-02-25T23:34:07.990Z,8.20
2019-02-25T23:36:28.439Z,5.80
2019-02-25T23:38:50.666Z,8.15
2019-02-25T23:41:12.810Z,8.23
2019-02-25T23:43:37.786Z,7.15
2019-02-25T23:45:58.079Z,8.05
2019-02-25T23:48:19.356Z,5.70
2019-02-25T23:50:39.871Z,6.12
2019-02-25T23:53:00.397Z,6.80
2019-02-25T23:55:23.869Z,6.87
2019-02-25T23:57:42.821Z,6.43
